Time;durP1;ratioP1;P1;durP2;ratioP2;P2;SDS_P1;SDS_P2;PMS_P1;PMS_P2;Temp;Humidity;BMP_temperature;BMP_pressure;BME280_temperature;BME280_humidity;BME280_pressure;Samples;Min_cycle;Max_cycle;Signal;HPM_P1;HPM_P2
2020/12/30 00:01:22;;;;;;;28.57;16.05;;;;;;;0.72;100.00;101036.00;1809815;78;20990;-60
2020/12/30 00:03:51;;;;;;;26.70;13.55;;;;;;;0.75;100.00;101030.28;1792463;78;21435;-60
2020/12/30 00:06:20;;;;;;;25.88;15.40;;;;;;;0.73;100.00;101032.50;1801737;78;21167;-50
2020/12/30 00:08:48;;;;;;;21.60;12.88;;;;;;;0.71;100.00;101039.46;1812270;78;21210;-51
2020/12/30 00:11:17;;;;;;;17.80;11.20;;;;;;;0.67;100.00;101039.30;1789284;78;21152;-51
2020/12/30 00:13:45;;;;;;;15.88;10.53;;;;;;;0.64;100.00;101041.25;1803847;78;21137;-51
2020/12/30 00:16:13;;;;;;;26.35;13.40;;;;;;;0.60;100.00;101047.03;1813386;78;21207;-61
2020/12/30 00:30:33;;;;;;;17.17;12.03;;;;;;;1.06;100.00;101034.20;1745933;80;22059;-62
2020/12/30 00:33:02;;;;;;;16.35;11.12;;;;;;;1.08;100.00;101043.92;1751126;80;21010;-62
2020/12/30 00:35:30;;;;;;;15.83;9.43;;;;;;;1.08;100.00;101035.76;1719027;80;21125;-62
2020/12/30 00:37:58;;;;;;;17.67;11.15;;;;;;;1.05;100.00;101047.98;1707542;82;21064;-58
2020/12/30 00:40:26;;;;;;;14.80;9.28;;;;;;;1.00;100.00;101046.19;1712542;80;21535;-59
2020/12/30 00:42:55;;;;;;;16.12;11.38;;;;;;;0.93;100.00;101036.78;1751979;80;21013;-56
2020/12/30 00:45:23;;;;;;;17.25;11.33;;;;;;;0.86;100.00;101044.05;1730875;81;21069;-63
2020/12/30 00:47:51;;;;;;;16.87;11.15;;;;;;;0.82;100.00;101038.77;1705670;81;21216;-58
2020/12/30 00:50:19;;;;;;;15.80;9.80;;;;;;;0.78;100.00;101036.51;1736115;80;20980;-59
2020/12/30 00:52:49;;;;;;;14.68;9.53;;;;;;;0.76;100.00;101037.05;1755805;80;21017;-63
2020/12/30 00:55:17;;;;;;;14.07;10.08;;;;;;;0.73;100.00;101038.91;1755452;81;21063;-63
2020/12/30 00:57:50;;;;;;;12.63;8.98;;;;;;;0.71;100.00;101035.61;1743208;81;21152;-62
2020/12/30 01:00:18;;;;;;;11.53;7.78;;;;;;;0.69;100.00;101032.34;1726905;83;21470;-58
2020/12/30 01:03:05;;;;;;;14.18;8.98;;;;;;;0.67;100.00;101030.33;1727209;82;21049;-58
2020/12/30 01:05:34;;;;;;;13.20;9.05;;;;;;;0.62;100.00;101028.53;1728702;82;21140;-62
2020/12/30 01:08:02;;;;;;;13.83;9.30;;;;;;;0.60;100.00;101029.08;1725326;82;21172;-62
2020/12/30 01:10:30;;;;;;;13.50;9.13;;;;;;;0.59;100.00;101021.03;1715294;82;21167;-61
2020/12/30 01:12:58;;;;;;;13.40;9.30;;;;;;;0.58;100.00;101025.80;1727577;82;21160;-57
2020/12/30 01:15:27;;;;;;;14.98;9.50;;;;;;;0.55;100.00;101022.15;1705914;81;21215;-56
2020/12/30 01:18:02;;;;;;;12.45;7.35;;;;;;;0.53;100.00;101024.44;1712761;82;21136;-60
2020/12/30 01:20:36;;;;;;;14.87;9.43;;;;;;;0.55;100.00;101018.30;1845862;76;22031;-60
2020/12/30 01:23:05;;;;;;;14.05;9.63;;;;;;;0.49;100.00;101012.27;1736955;80;21013;-60
2020/12/30 01:25:33;;;;;;;13.25;8.73;;;;;;;0.46;100.00;101001.77;1730548;82;21432;-60
2020/12/30 01:28:01;;;;;;;12.15;8.55;;;;;;;0.46;100.00;100983.00;1722789;81;21050;-56
2020/12/30 01:30:29;;;;;;;13.48;8.63;;;;;;;0.43;100.00;100976.78;1727035;82;21065;-57
2020/12/30 01:32:57;;;;;;;14.13;8.65;;;;;;;0.38;100.00;100963.41;1778103;79;20989;-57
2020/12/30 01:35:25;;;;;;;14.53;8.70;;;;;;;0.34;100.00;100949.16;1773887;79;21018;-60
2020/12/30 01:37:54;;;;;;;13.55;8.80;;;;;;;0.32;100.00;100936.91;1771343;80;21193;-57
2020/12/30 01:40:22;;;;;;;15.48;10.18;;;;;;;0.30;100.00;100933.61;1781361;79;20970;-60
2020/12/30 01:42:50;;;;;;;14.65;8.60;;;;;;;0.27;100.00;100913.32;1777797;79;20977;-61
2020/12/30 01:45:18;;;;;;;13.20;9.15;;;;;;;0.26;100.00;100916.78;1777082;79;21146;-56
2020/12/30 01:47:48;;;;;;;15.63;10.08;;;;;;;0.23;100.00;100917.36;1779192;79;20983;-56
2020/12/30 01:50:16;;;;;;;16.05;10.48;;;;;;;0.23;100.00;100925.52;1777876;80;21360;-56
2020/12/30 01:52:44;;;;;;;14.10;9.70;;;;;;;0.21;100.00;100928.63;1765032;79;21068;-61
2020/12/30 01:55:12;;;;;;;15.55;10.30;;;;;;;0.20;100.00;100930.38;1778826;80;21017;-56
2020/12/30 01:57:41;;;;;;;17.98;10.45;;;;;;;0.21;100.00;100929.45;1779152;79;21045;-61
2020/12/30 02:00:09;;;;;;;15.88;10.35;;;;;;;0.22;100.00;100931.08;1779588;80;21161;-56
2020/12/30 02:02:38;;;;;;;16.23;10.72;;;;;;;0.24;100.00;100936.95;1779414;79;21131;-57
2020/12/30 02:05:09;;;;;;;17.35;11.03;;;;;;;0.26;100.00;100930.42;1717821;80;21136;-61
2020/12/30 02:07:37;;;;;;;17.40;11.00;;;;;;;0.26;100.00;100925.30;1724134;80;20978;-57
2020/12/30 02:10:05;;;;;;;17.40;11.43;;;;;;;0.25;100.00;100923.66;1767405;80;21081;-61
2020/12/30 02:12:34;;;;;;;16.32;10.80;;;;;;;0.24;100.00;100927.97;1734112;80;20946;-57
2020/12/30 02:15:02;;;;;;;14.53;9.70;;;;;;;0.23;100.00;100936.59;1745565;81;21157;-62
2020/12/30 02:17:30;;;;;;;18.67;10.72;;;;;;;0.26;100.00;100952.68;1718993;82;21033;-58
2020/12/30 02:19:58;;;;;;;18.85;12.05;;;;;;;0.32;100.00;100966.40;1748818;81;21114;-62
2020/12/30 02:22:26;;;;;;;19.00;11.80;;;;;;;0.37;100.00;100974.60;1740966;81;21156;-57
2020/12/30 02:24:54;;;;;;;18.60;10.88;;;;;;;0.42;100.00;100986.22;1695472;81;21129;-57
2020/12/30 02:27:23;;;;;;;15.32;10.25;;;;;;;0.47;100.00;100987.20;1732809;81;21154;-61
2020/12/30 02:29:51;;;;;;;18.07;11.75;;;;;;;0.51;100.00;100978.38;1777904;80;21096;-58
2020/12/30 02:32:20;;;;;;;15.95;11.18;;;;;;;0.52;100.00;100982.58;1782337;79;20998;-58
2020/12/30 02:34:49;;;;;;;17.73;11.35;;;;;;;0.53;100.00;101006.05;1782111;79;21021;-56
2020/12/30 02:37:21;;;;;;;14.83;9.55;;;;;;;0.55;100.00;101023.44;1748866;81;21194;-57
2020/12/30 02:39:47;;;;;;;15.75;9.70;;;;;;;0.57;100.00;101028.45;1722513;82;21225;-57
2020/12/30 02:42:16;;;;;;;16.30;10.35;;;;;;;0.60;100.00;101030.36;1738207;81;21033;-58
2020/12/30 02:44:44;;;;;;;16.10;10.50;;;;;;;0.63;100.00;101019.91;1770732;80;21322;-57
2020/12/30 02:47:12;;;;;;;15.13;10.05;;;;;;;0.66;100.00;101015.05;1713752;80;21045;-62
2020/12/30 02:49:41;;;;;;;14.23;9.23;;;;;;;0.67;100.00;101016.21;1721976;82;21233;-58
2020/12/30 02:52:09;;;;;;;18.15;11.40;;;;;;;0.67;100.00;101020.06;1718198;82;21255;-61
2020/12/30 02:54:38;;;;;;;15.32;9.15;;;;;;;0.70;100.00;101022.90;1719197;82;21001;-57
2020/12/30 02:57:06;;;;;;;18.70;10.98;;;;;;;0.74;100.00;101017.92;1774104;79;21025;-61
2020/12/30 02:59:34;;;;;;;15.40;9.53;;;;;;;0.75;100.00;101005.45;1753069;79;21084;-61
2020/12/30 03:02:02;;;;;;;18.25;11.60;;;;;;;0.77;100.00;100995.91;1771323;80;21140;-61
2020/12/30 03:04:30;;;;;;;17.95;11.55;;;;;;;0.76;100.00;100990.86;1782575;79;21203;-57
2020/12/30 03:06:58;;;;;;;23.60;14.93;;;;;;;0.73;100.00;100988.06;1753507;80;21167;-58
2020/12/30 03:09:27;;;;;;;18.35;11.63;;;;;;;0.69;100.00;100987.44;1777836;79;20996;-60
2020/12/30 03:11:55;;;;;;;14.68;9.80;;;;;;;0.66;100.00;100991.48;1766426;80;21201;-60
2020/12/30 03:14:23;;;;;;;13.98;9.28;;;;;;;0.64;100.00;100998.45;1782121;79;21096;-57
2020/12/30 03:16:51;;;;;;;14.65;9.78;;;;;;;0.64;100.00;101003.58;1768570;80;21213;-59
2020/12/30 03:19:20;;;;;;;14.20;9.23;;;;;;;0.65;100.00;101006.53;1774097;80;21002;-57
2020/12/30 03:21:49;;;;;;;13.22;8.50;;;;;;;0.63;100.00;100999.84;1774470;80;21041;-61
2020/12/30 03:24:17;;;;;;;15.45;9.13;;;;;;;0.62;100.00;100999.03;1772589;80;21160;-57
2020/12/30 03:26:46;;;;;;;16.48;10.88;;;;;;;0.62;100.00;101007.19;1776979;79;21152;-57
2020/12/30 03:29:14;;;;;;;16.07;10.45;;;;;;;0.61;100.00;101010.22;1760763;80;21204;-61
2020/12/30 03:31:42;;;;;;;15.88;10.88;;;;;;;0.62;100.00;101010.57;1762441;80;21018;-58
2020/12/30 03:34:11;;;;;;;16.25;10.68;;;;;;;0.63;100.00;101008.36;1737091;80;20993;-62
2020/12/30 03:36:39;;;;;;;16.62;11.22;;;;;;;0.64;100.00;101001.02;1741228;80;21032;-62
2020/12/30 03:39:07;;;;;;;17.98;11.20;;;;;;;0.63;100.00;101001.94;1743682;81;21146;-55
2020/12/30 03:41:36;;;;;;;17.48;11.43;;;;;;;0.60;100.00;101002.14;1743940;81;21307;-62
2020/12/30 03:44:04;;;;;;;15.90;9.95;;;;;;;0.58;100.00;101001.90;1747444;81;21241;-59
2020/12/30 03:46:33;;;;;;;17.55;11.28;;;;;;;0.58;100.00;101023.23;1734203;81;21162;-57
2020/12/30 03:49:01;;;;;;;18.30;11.68;;;;;;;0.57;100.00;101037.00;1740900;80;21021;-56
2020/12/30 03:51:29;;;;;;;22.15;13.25;;;;;;;0.57;100.00;101044.69;1737514;82;21187;-56
2020/12/30 03:53:57;;;;;;;16.20;10.43;;;;;;;0.59;100.00;101037.70;1726434;81;21211;-60
2020/12/30 03:56:25;;;;;;;18.17;11.00;;;;;;;0.60;100.00;101024.41;1759960;79;21036;-56
2020/12/30 03:58:53;;;;;;;20.32;12.35;;;;;;;0.55;100.00;101013.17;1739855;80;20981;-62
2020/12/30 04:01:23;;;;;;;17.55;11.15;;;;;;;0.51;100.00;101021.98;1743903;80;21195;-58
2020/12/30 04:03:52;;;;;;;18.70;10.58;;;;;;;0.48;100.00;101008.89;1711681;83;21196;-56
2020/12/30 04:06:20;;;;;;;16.87;10.60;;;;;;;0.46;100.00;101015.88;1723177;82;21212;-61
2020/12/30 04:08:49;;;;;;;19.30;11.65;;;;;;;0.44;100.00;101005.34;1719085;81;21015;-56
2020/12/30 04:11:17;;;;;;;19.62;11.53;;;;;;;0.41;100.00;101003.80;1759348;80;21002;-62
2020/12/30 04:13:45;;;;;;;16.80;11.55;;;;;;;0.40;100.00;100998.78;1734500;81;21076;-58
2020/12/30 04:16:22;;;;;;;19.12;12.07;;;;;;;0.37;100.00;101005.38;1720352;81;21129;-61
2020/12/30 04:18:52;;;;;;;19.45;12.30;;;;;;;0.35;100.00;101007.23;1731880;81;22189;-63
2020/12/30 04:21:21;;;;;;;19.62;12.93;;;;;;;0.33;100.00;101005.22;1715002;81;21042;-62
2020/12/30 04:23:51;;;;;;;20.77;12.85;;;;;;;0.32;100.00;101013.84;1711395;82;21243;-57
2020/12/30 04:26:20;;;;;;;20.10;12.60;;;;;;;0.33;100.00;101016.76;1721528;81;21573;-57
2020/12/30 04:28:49;;;;;;;19.17;12.00;;;;;;;0.36;100.00;101027.64;1724408;82;21083;-61
2020/12/30 04:31:18;;;;;;;21.77;13.70;;;;;;;0.39;100.00;101022.79;1732330;82;22304;-61
2020/12/30 04:33:46;;;;;;;18.30;12.28;;;;;;;0.40;100.00;101021.39;1775285;79;21073;-60
2020/12/30 04:36:14;;;;;;;18.32;11.83;;;;;;;0.44;100.00;101043.36;1744262;79;21065;-59
2020/12/30 04:38:42;;;;;;;18.73;11.70;;;;;;;0.47;100.00;101032.09;1769078;80;21164;-60
2020/12/30 04:41:12;;;;;;;21.87;12.23;;;;;;;0.47;100.00;101034.19;1762782;80;21118;-58
2020/12/30 04:43:44;;;;;;;20.23;12.82;;;;;;;0.47;100.00;101025.67;1778319;80;21198;-58
2020/12/30 04:46:13;;;;;;;19.87;12.43;;;;;;;0.47;100.00;101035.94;1751397;81;21187;-60
2020/12/30 04:48:41;;;;;;;16.95;11.50;;;;;;;0.47;100.00;101039.78;1729669;82;21188;-60
2020/12/30 04:51:10;;;;;;;18.67;14.18;;;;;;;0.48;100.00;101046.09;1751771;81;21039;-58
2020/12/30 04:53:39;;;;;;;21.55;13.38;;;;;;;0.47;100.00;101037.22;1738205;81;21045;-58
2020/12/30 04:56:07;;;;;;;23.67;14.60;;;;;;;0.43;100.00;101036.59;1729699;80;21493;-58
2020/12/30 04:58:35;;;;;;;17.92;12.07;;;;;;;0.41;100.00;101046.58;1780841;80;21172;-59
2020/12/30 05:01:04;;;;;;;25.10;16.25;;;;;;;0.41;100.00;101046.58;1741753;80;20990;-60
2020/12/30 05:03:32;;;;;;;23.30;14.90;;;;;;;0.39;100.00;101039.45;1749588;80;21156;-60
2020/12/30 05:06:03;;;;;;;21.73;14.33;;;;;;;0.36;100.00;101044.31;1729996;81;21068;-60
2020/12/30 05:08:33;;;;;;;24.30;14.90;;;;;;;0.35;100.00;101048.27;1730922;82;21343;-58
2020/12/30 05:11:01;;;;;;;27.27;17.07;;;;;;;0.33;100.00;101046.25;1712897;82;21037;-60
2020/12/30 05:13:29;;;;;;;24.20;15.08;;;;;;;0.31;100.00;101047.64;1780994;79;21099;-60
2020/12/30 05:16:00;;;;;;;25.02;15.18;;;;;;;0.32;100.00;101045.43;1772180;80;20957;-58
2020/12/30 05:18:28;;;;;;;25.75;16.10;;;;;;;0.34;100.00;101035.91;1762640;80;20899;-60
2020/12/30 05:20:56;;;;;;;23.10;15.20;;;;;;;0.35;100.00;101031.14;1770566;79;21200;-60
2020/12/30 05:23:24;;;;;;;26.73;17.27;;;;;;;0.34;100.00;101033.78;1770710;79;21087;-60
2020/12/30 05:25:52;;;;;;;26.73;16.95;;;;;;;0.32;100.00;101042.86;1768080;80;21001;-60
2020/12/30 05:28:20;;;;;;;29.40;18.23;;;;;;;0.33;100.00;101052.66;1694045;82;21222;-58
2020/12/30 05:30:48;;;;;;;28.27;17.50;;;;;;;0.33;100.00;101050.91;1664120;82;21138;-60
2020/12/30 05:33:16;;;;;;;28.38;18.10;;;;;;;0.32;100.00;101053.59;1726854;81;21300;-58
2020/12/30 05:35:45;;;;;;;29.25;17.75;;;;;;;0.34;100.00;101049.17;1727601;82;21180;-61
2020/12/30 05:38:13;;;;;;;29.18;18.82;;;;;;;0.33;100.00;101058.61;1662498;84;21318;-60
2020/12/30 05:40:42;;;;;;;33.40;19.62;;;;;;;0.34;100.00;101070.97;1720402;81;20997;-58
2020/12/30 05:43:14;;;;;;;34.75;18.45;;;;;;;0.37;100.00;101057.48;1771326;80;21041;-60
2020/12/30 05:45:50;;;;;;;32.73;20.02;;;;;;;0.37;100.00;101057.48;1776087;79;22410;-59
2020/12/30 05:48:19;;;;;;;32.25;17.80;;;;;;;0.34;100.00;101055.58;1779906;79;21107;-60
2020/12/30 05:50:54;;;;;;;31.90;19.52;;;;;;;0.33;100.00;101061.63;1773796;79;21012;-60
2020/12/30 05:53:22;;;;;;;32.20;18.32;;;;;;;0.31;100.00;101063.48;1771138;79;21568;-57
2020/12/30 05:55:52;;;;;;;29.30;16.67;;;;;;;0.31;100.00;101068.62;1776432;80;21032;-59
2020/12/30 05:58:20;;;;;;;27.22;16.48;;;;;;;0.31;100.00;101073.75;1782325;80;22274;-60
2020/12/30 06:00:49;;;;;;;25.30;15.60;;;;;;;0.33;100.00;101070.61;1775622;79;21182;-60
2020/12/30 06:03:22;;;;;;;29.15;17.65;;;;;;;0.35;100.00;101068.78;1766180;80;21249;-60
2020/12/30 06:05:50;;;;;;;33.85;17.48;;;;;;;0.34;100.00;101062.84;1780614;79;21606;-60
2020/12/30 06:08:18;;;;;;;32.88;16.52;;;;;;;0.37;100.00;101060.52;1776011;79;21220;-58
2020/12/30 06:10:46;;;;;;;41.68;20.25;;;;;;;0.38;100.00;101059.16;1766268;79;21381;-57
2020/12/30 06:13:17;;;;;;;38.13;18.20;;;;;;;0.39;100.00;101056.95;1743814;79;21241;-57
2020/12/30 06:15:45;;;;;;;33.23;17.30;;;;;;;0.40;100.00;101060.33;1748011;80;21176;-57
2020/12/30 06:18:13;;;;;;;29.98;17.02;;;;;;;0.40;100.00;101059.05;1747976;80;21129;-60
2020/12/30 06:20:41;;;;;;;28.77;17.95;;;;;;;0.40;100.00;101062.43;1739468;80;21162;-59
2020/12/30 06:23:12;;;;;;;33.25;18.15;;;;;;;0.42;100.00;101081.13;1769545;80;21144;-57
2020/12/30 06:25:49;;;;;;;28.32;17.25;;;;;;;0.44;100.00;101093.38;1776300;80;21182;-58
2020/12/30 06:28:19;;;;;;;37.90;21.80;;;;;;;0.51;100.00;101080.98;1759017;80;21233;-59
2020/12/30 06:30:49;;;;;;;33.98;19.70;;;;;;;0.51;100.00;101074.58;1737208;82;21041;-59
2020/12/30 06:33:23;;;;;;;29.20;16.77;;;;;;;0.54;100.00;101073.56;1778727;80;21196;-60
2020/12/30 06:35:56;;;;;;;28.98;17.05;;;;;;;0.55;100.00;101077.30;1773661;80;21313;-60
2020/12/30 06:38:30;;;;;;;27.05;16.48;;;;;;;0.56;100.00;101076.38;1777200;80;21005;-59
2020/12/30 06:40:59;;;;;;;25.02;15.20;;;;;;;0.57;100.00;101078.48;1776093;80;21096;-58
2020/12/30 06:43:50;;;;;;;27.30;15.78;;;;;;;0.58;100.00;101083.53;1775157;80;21062;-60
2020/12/30 06:46:29;;;;;;;28.05;16.32;;;;;;;0.58;100.00;101078.86;1771418;80;21208;-61
2020/12/30 06:49:03;;;;;;;23.75;15.50;;;;;;;0.58;100.00;101074.55;1764546;80;21061;-61
2020/12/30 06:51:40;;;;;;;27.30;16.75;;;;;;;0.63;100.00;101067.83;1746925;81;21171;-59
2020/12/30 06:54:08;;;;;;;24.82;15.50;;;;;;;0.66;100.00;101070.20;1733623;82;20989;-60
2020/12/30 06:56:44;;;;;;;26.65;16.30;;;;;;;0.69;100.00;101073.40;1776243;80;21166;-59
2020/12/30 06:59:32;;;;;;;26.85;16.37;;;;;;;0.73;100.00;101086.85;1766156;80;21155;-60
2020/12/30 07:02:03;;;;;;;30.92;18.20;;;;;;;0.76;100.00;101087.09;1739564;81;21215;-58
2020/12/30 07:04:32;;;;;;;27.80;15.95;;;;;;;0.79;100.00;101084.34;1731346;81;21115;-58
2020/12/30 07:07:02;;;;;;;28.57;17.17;;;;;;;0.82;100.00;101087.99;1731219;82;21037;-60
2020/12/30 07:09:35;;;;;;;24.72;14.65;;;;;;;0.87;100.00;101089.36;1729451;81;21108;-60
2020/12/30 07:12:05;;;;;;;27.00;17.00;;;;;;;0.94;100.00;101092.32;1732121;82;21158;-60
2020/12/30 07:14:35;;;;;;;27.73;17.12;;;;;;;0.99;100.00;101098.47;1742629;81;21214;-57
2020/12/30 07:17:07;;;;;;;28.15;16.57;;;;;;;1.02;100.00;101097.77;1733888;82;21262;-61
2020/12/30 07:19:38;;;;;;;26.05;17.12;;;;;;;1.08;100.00;101099.13;1775927;80;20931;-60
2020/12/30 07:22:13;;;;;;;28.77;16.45;;;;;;;1.10;100.00;101095.98;1775409;80;21608;-60
2020/12/30 07:24:56;;;;;;;26.02;14.53;;;;;;;1.14;100.00;101105.97;1779281;79;21129;-57
2020/12/30 07:27:28;;;;;;;27.42;15.90;;;;;;;1.18;100.00;101101.45;1729797;80;21205;-60
2020/12/30 07:29:57;;;;;;;24.00;15.10;;;;;;;1.18;100.00;101097.14;1778727;80;21054;-58
2020/12/30 07:32:25;;;;;;;29.45;16.57;;;;;;;1.20;100.00;101099.13;1777375;80;21133;-58
2020/12/30 07:34:53;;;;;;;25.15;15.78;;;;;;;1.22;100.00;101105.47;1775578;79;21770;-58
2020/12/30 07:37:22;;;;;;;24.72;13.65;;;;;;;1.23;100.00;101100.68;1779791;80;21152;-58
2020/12/30 07:39:50;;;;;;;25.45;14.87;;;;;;;1.25;100.00;101098.84;1778613;80;20935;-60
2020/12/30 07:42:23;;;;;;;26.07;15.85;;;;;;;1.27;100.00;101106.44;1779706;80;21121;-60
2020/12/30 07:44:54;;;;;;;26.75;15.53;;;;;;;1.30;100.00;101105.77;1776478;80;20948;-57
2020/12/30 07:47:26;;;;;;;24.77;14.45;;;;;;;1.32;100.00;101101.80;1780035;80;26929;-60
2020/12/30 07:50:01;;;;;;;23.18;14.30;;;;;;;1.30;100.00;101103.67;1776933;79;21091;-60
2020/12/30 07:52:29;;;;;;;23.47;14.35;;;;;;;1.29;100.00;101104.58;1776143;79;21363;-61
2020/12/30 07:54:58;;;;;;;21.02;13.58;;;;;;;1.29;100.00;101110.99;1742852;80;21013;-58
2020/12/30 07:57:26;;;;;;;28.50;15.88;;;;;;;1.32;100.00;101117.22;1730679;82;21188;-58
2020/12/30 07:59:56;;;;;;;27.82;16.70;;;;;;;1.35;100.00;101114.45;1773796;80;20961;-58
2020/12/30 08:02:25;;;;;;;25.52;16.00;;;;;;;1.37;100.00;101113.44;1776200;80;21168;-61
2020/12/30 08:05:00;;;;;;;25.62;15.28;;;;;;;1.40;100.00;101118.37;1778908;80;21189;-59
2020/12/30 08:07:31;;;;;;;26.42;14.40;;;;;;;1.43;100.00;101113.47;1776888;80;21060;-61
2020/12/30 08:10:00;;;;;;;26.68;15.35;;;;;;;1.45;100.00;101115.02;1773429;79;21149;-60
2020/12/30 08:12:28;;;;;;;23.02;14.15;;;;;;;1.52;100.00;101110.30;1775515;80;21009;-60
2020/12/30 08:14:57;;;;;;;23.40;15.03;;;;;;;1.58;100.00;101098.30;1776585;80;21145;-59
2020/12/30 08:17:25;;;;;;;23.77;14.43;;;;;;;1.62;100.00;101101.49;1775152;80;23531;-60
2020/12/30 08:19:54;;;;;;;23.40;15.43;;;;;;;1.64;100.00;101104.33;1775539;80;21223;-60
2020/12/30 08:22:30;;;;;;;22.77;15.83;;;;;;;1.70;100.00;101110.34;1779424;80;20997;-61
2020/12/30 08:24:58;;;;;;;26.90;16.05;;;;;;;1.74;100.00;101111.39;1778445;80;21030;-58
2020/12/30 08:27:31;;;;;;;23.07;13.60;;;;;;;1.76;100.00;101109.55;1781331;79;21021;-60
2020/12/30 08:30:01;;;;;;;20.88;13.25;;;;;;;1.79;100.00;101097.78;1773159;80;21471;-58
2020/12/30 08:32:41;;;;;;;23.25;14.70;;;;;;;1.77;100.00;101097.87;1772594;79;21046;-60
2020/12/30 08:35:33;;;;;;;20.90;13.13;;;;;;;1.74;100.00;101101.11;1775698;80;21543;-62
2020/12/30 08:38:12;;;;;;;21.20;12.95;;;;;;;1.73;100.00;101109.30;1780769;80;21207;-60
2020/12/30 08:40:41;;;;;;;23.10;13.72;;;;;;;1.76;100.00;101112.13;1779013;79;21192;-61
2020/12/30 08:43:41;;;;;;;24.35;14.33;;;;;;;1.82;100.00;101109.11;1776629;80;21241;-58
2020/12/30 08:46:20;;;;;;;27.70;18.45;;;;;;;1.89;100.00;101110.34;1777141;80;21123;-58
2020/12/30 08:48:50;;;;;;;22.62;14.05;;;;;;;2.02;100.00;101107.30;1774186;80;20972;-63
2020/12/30 08:51:30;;;;;;;22.82;14.07;;;;;;;2.14;100.00;101106.43;1778277;80;21529;-58
2020/12/30 08:53:58;;;;;;;27.65;16.07;;;;;;;2.22;100.00;101108.46;1783316;80;21128;-58
2020/12/30 08:56:28;;;;;;;25.00;17.05;;;;;;;2.31;100.00;101109.55;1776272;80;21016;-63
2020/12/30 08:58:57;;;;;;;25.77;17.02;;;;;;;2.37;100.00;101098.37;1771764;80;21522;-59
2020/12/30 09:01:27;;;;;;;24.10;15.53;;;;;;;2.41;100.00;101103.66;1775216;80;21070;-63
2020/12/30 09:04:10;;;;;;;23.87;15.60;;;;;;;2.44;100.00;101089.28;1764193;80;20980;-59
2020/12/30 09:06:39;;;;;;;28.15;17.57;;;;;;;2.47;100.00;101101.13;1772966;80;21111;-59
2020/12/30 09:09:12;;;;;;;30.95;18.35;;;;;;;2.56;100.00;101090.63;1732105;82;22710;-63
2020/12/30 09:11:49;;;;;;;30.15;19.52;;;;;;;2.65;100.00;101086.08;1776676;80;21233;-58
2020/12/30 09:14:22;;;;;;;28.25;16.00;;;;;;;2.68;100.00;101082.82;1777200;80;21231;-59
2020/12/30 09:17:11;;;;;;;23.05;15.38;;;;;;;2.69;100.00;101081.09;1775386;80;21089;-64
2020/12/30 09:19:36;;;;;;;27.13;17.07;;;;;;;2.67;100.00;101086.81;1775279;80;21064;-59
2020/12/30 09:22:11;;;;;;;23.57;16.27;;;;;;;2.70;100.00;101089.64;1775646;80;21987;-59
2020/12/30 09:24:40;;;;;;;24.80;15.30;;;;;;;2.74;100.00;101088.48;1776658;79;21504;-59
2020/12/30 09:27:21;;;;;;;24.57;15.32;;;;;;;2.80;100.00;101091.88;1774299;80;21321;-65
2020/12/30 09:30:14;;;;;;;20.08;13.10;;;;;;;2.84;100.00;101092.84;1773310;80;21509;-63
2020/12/30 09:32:44;;;;;;;17.87;12.33;;;;;;;2.91;100.00;101077.75;1717099;83;21128;-61
2020/12/30 09:35:18;;;;;;;21.35;12.82;;;;;;;2.92;100.00;101062.20;1717815;82;21404;-60
2020/12/30 09:37:57;;;;;;;17.52;11.73;;;;;;;2.90;100.00;101052.94;1744627;79;21148;-59
2020/12/30 09:40:26;;;;;;;18.42;12.53;;;;;;;2.80;100.00;101048.11;1779882;80;21071;-62
2020/12/30 09:43:17;;;;;;;22.67;14.83;;;;;;;2.72;100.00;101038.84;1777524;79;21163;-63
2020/12/30 09:45:46;;;;;;;22.77;14.73;;;;;;;2.62;100.00;101048.54;1776684;79;21123;-60
2020/12/30 09:48:19;;;;;;;19.92;14.30;;;;;;;2.57;100.00;101072.95;1777627;79;22241;-60
2020/12/30 09:50:51;;;;;;;22.87;14.80;;;;;;;2.60;100.00;101061.16;1777224;79;21865;-60
2020/12/30 09:53:19;;;;;;;19.20;12.23;;;;;;;2.58;100.00;101051.45;1779618;80;21114;-58
2020/12/30 09:55:48;;;;;;;20.82;14.68;;;;;;;2.53;100.00;101053.05;1782083;79;21137;-59
2020/12/30 09:58:17;;;;;;;21.12;14.20;;;;;;;2.48;100.00;101058.19;1771609;80;21694;-59
2020/12/30 10:00:45;;;;;;;22.90;13.30;;;;;;;2.44;100.00;101059.69;1776571;80;21335;-58
2020/12/30 10:03:14;;;;;;;19.00;11.75;;;;;;;2.45;100.00;101054.08;1778649;80;21152;-58
2020/12/30 10:05:42;;;;;;;18.15;11.93;;;;;;;2.46;100.00;101041.56;1779737;79;21044;-61
2020/12/30 10:08:10;;;;;;;16.70;11.48;;;;;;;2.45;100.00;101038.64;1774967;80;21174;-59
2020/12/30 10:10:38;;;;;;;17.42;11.45;;;;;;;2.43;100.00;101045.20;1778208;79;21143;-59
2020/12/30 10:13:07;;;;;;;16.30;11.50;;;;;;;2.44;100.00;101050.69;1773093;79;21203;-59
2020/12/30 10:15:35;;;;;;;15.55;11.50;;;;;;;2.48;100.00;101054.33;1753248;80;21028;-57
2020/12/30 10:18:04;;;;;;;15.55;11.15;;;;;;;2.53;100.00;101052.23;1739309;80;21131;-60
2020/12/30 10:20:32;;;;;;;18.73;12.85;;;;;;;2.56;100.00;101052.84;1732872;81;21187;-57
2020/12/30 10:23:00;;;;;;;27.32;17.30;;;;;;;2.58;100.00;101046.31;1777249;79;21150;-60
2020/12/30 10:25:28;;;;;;;17.75;12.07;;;;;;;2.64;100.00;101039.41;1774420;79;21199;-60
2020/12/30 10:27:57;;;;;;;15.30;11.22;;;;;;;2.67;100.00;101047.73;1773679;80;21013;-60
2020/12/30 10:30:25;;;;;;;17.67;11.88;;;;;;;2.72;100.00;101040.13;1776745;79;21124;-60
2020/12/30 10:32:59;;;;;;;22.32;13.18;;;;;;;2.75;100.00;101040.72;1774398;80;21044;-60
2020/12/30 10:35:27;;;;;;;15.68;11.53;;;;;;;2.78;100.00;101044.84;1775344;80;21000;-61
2020/12/30 10:37:55;;;;;;;17.62;11.97;;;;;;;2.80;100.00;101039.91;1776863;80;21210;-60
2020/12/30 10:40:24;;;;;;;20.50;14.45;;;;;;;2.84;100.00;101031.05;1775535;79;21233;-61
2020/12/30 10:42:53;;;;;;;18.52;13.45;;;;;;;2.86;100.00;101034.79;1774916;79;21239;-58
2020/12/30 10:45:21;;;;;;;40.60;21.25;;;;;;;2.87;100.00;101042.86;1774826;80;21154;-59
2020/12/30 10:47:50;;;;;;;34.55;20.55;;;;;;;2.92;100.00;101044.64;1779987;80;21115;-59
2020/12/30 10:50:18;;;;;;;31.15;19.10;;;;;;;2.96;100.00;101059.41;1776451;80;22129;-58
2020/12/30 10:52:46;;;;;;;18.60;13.30;;;;;;;2.96;100.00;101051.20;1753729;80;21203;-58
2020/12/30 10:55:14;;;;;;;30.25;17.10;;;;;;;2.94;100.00;101053.06;1727647;82;21124;-58
2020/12/30 10:57:42;;;;;;;29.90;17.05;;;;;;;2.91;100.00;101060.53;1724730;82;21196;-58
2020/12/30 11:00:12;;;;;;;18.87;11.93;;;;;;;2.90;100.00;101059.38;1728925;82;21206;-62
2020/12/30 11:02:41;;;;;;;13.98;11.12;;;;;;;2.86;100.00;101048.95;1728394;82;21448;-59
2020/12/30 11:05:09;;;;;;;15.50;11.22;;;;;;;2.80;100.00;101044.24;1726266;82;21171;-64
2020/12/30 11:07:37;;;;;;;22.32;14.63;;;;;;;2.72;100.00;101058.15;1778735;79;21056;-59
2020/12/30 11:10:05;;;;;;;16.35;12.47;;;;;;;2.67;100.00;101060.59;1746251;80;21172;-58
2020/12/30 11:12:36;;;;;;;15.60;10.70;;;;;;;2.66;100.00;101053.81;1780458;80;21120;-59
2020/12/30 11:15:06;;;;;;;16.12;12.60;;;;;;;2.65;100.00;101041.04;1781722;79;21198;-58
2020/12/30 11:17:34;;;;;;;17.05;12.50;;;;;;;2.63;100.00;101050.17;1777019;80;21174;-58
2020/12/30 11:20:03;;;;;;;17.07;12.25;;;;;;;2.61;100.00;101047.34;1778021;79;21176;-59
2020/12/30 11:22:31;;;;;;;18.98;13.18;;;;;;;2.61;100.00;101048.63;1775209;80;21164;-64
2020/12/30 11:24:59;;;;;;;16.75;11.55;;;;;;;2.62;100.00;101045.97;1775376;80;21126;-63
2020/12/30 11:27:27;;;;;;;19.00;13.13;;;;;;;2.66;100.00;101042.23;1777265;80;21278;-64
2020/12/30 11:29:56;;;;;;;15.23;11.00;;;;;;;2.68;100.00;101039.06;1775781;79;20953;-59
2020/12/30 11:32:24;;;;;;;14.07;10.40;;;;;;;2.70;100.00;101044.11;1779448;80;21138;-63
2020/12/30 11:34:52;;;;;;;19.70;12.90;;;;;;;2.67;100.00;101040.47;1776399;79;21036;-62